Time;durP1;ratioP1;P1;durP2;ratioP2;P2;SDS_P1;SDS_P2;PMS_P1;PMS_P2;Temp;Humidity;BMP_temperature;BMP_pressure;BME280_temperature;BME280_humidity;BME280_pressure;Samples;Min_cycle;Max_cycle;Signal;HPM_P1;HPM_P2
2022/01/01 10:39:49;;;;;;;3.70;3.23;;;;;;;12.61;95.71;99978.47;5077618;27;20493;-86
2022/01/01 10:42:17;;;;;;;5.70;3.03;;;;;;;12.92;92.62;99943.16;5057745;28;39568;-84
2022/01/01 10:44:49;;;;;;;4.07;2.80;;;;;;;13.63;89.03;99983.53;5053900;28;40393;-84
2022/01/01 10:47:21;;;;;;;3.40;2.70;;;;;;;13.85;85.82;99940.53;5053221;28;41647;-89
2022/01/01 10:50:14;;;;;;;4.37;2.80;;;;;;;14.29;83.08;99959.22;5038211;28;41816;-85
2022/01/01 10:52:45;;;;;;;3.87;2.80;;;;;;;14.79;81.38;99977.50;5049865;28;39644;-86
2022/01/01 10:55:15;;;;;;;2.67;2.37;;;;;;;15.03;79.83;99967.09;5056681;28;40716;-88
2022/01/01 10:57:57;;;;;;;4.07;2.60;;;;;;;15.23;78.77;99952.47;5057904;28;42015;-84
2022/01/01 11:00:29;;;;;;;4.03;2.70;;;;;;;15.63;77.69;99981.03;5056408;28;40857;-86
2022/01/01 11:02:59;;;;;;;3.43;2.60;;;;;;;15.50;74.97;99942.69;5061314;28;39110;-89
2022/01/01 11:05:28;;;;;;;2.90;2.00;;;;;;;15.88;75.05;99974.91;5036709;28;41475;-85
2022/01/01 11:07:56;;;;;;;4.33;2.57;;;;;;;15.68;75.12;99919.31;5040412;28;44111;-85
2022/01/01 11:10:26;;;;;;;3.03;2.40;;;;;;;16.00;74.50;99962.56;5040339;28;41101;-85
2022/01/01 11:12:59;;;;;;;2.57;2.17;;;;;;;16.11;73.41;99952.00;5057852;28;40311;-86
2022/01/01 11:15:28;;;;;;;2.87;2.17;;;;;;;16.06;73.07;99928.28;5071998;28;41634;-88
2022/01/01 11:17:57;;;;;;;3.47;2.10;;;;;;;16.50;72.19;99972.47;5055761;28;41964;-88
2022/01/01 11:20:26;;;;;;;2.77;2.20;;;;;;;16.62;71.36;99970.75;5055634;28;40992;-87
2022/01/01 11:22:54;;;;;;;2.73;2.13;;;;;;;16.52;71.18;99933.13;5051545;28;38665;-88
2022/01/01 11:25:27;;;;;;;2.87;2.20;;;;;;;16.70;70.20;99961.25;5034995;28;41697;-86
2022/01/01 11:27:56;;;;;;;2.47;2.03;;;;;;;16.69;69.86;99940.00;5036608;28;41596;-87
2022/01/01 11:30:28;;;;;;;3.00;2.37;;;;;;;16.53;69.15;99897.38;5036592;28;41782;-88
2022/01/01 11:33:01;;;;;;;3.37;2.63;;;;;;;17.03;68.74;99967.88;5033503;28;39233;-88
2022/01/01 11:35:32;;;;;;;3.07;2.17;;;;;;;16.99;68.60;99953.88;5037624;28;40555;-88
2022/01/01 11:38:03;;;;;;;2.60;2.27;;;;;;;16.82;68.83;99917.59;5037952;28;41677;-85
2022/01/01 11:40:41;;;;;;;3.30;2.17;;;;;;;17.03;68.51;99959.84;5053072;28;41909;-87
2022/01/01 11:43:34;;;;;;;3.20;2.20;;;;;;;16.66;68.83;99892.91;5056676;28;39145;-85
2022/01/01 11:46:06;;;;;;;3.50;2.40;;;;;;;17.09;67.47;99948.69;5070814;28;40184;-88
2022/01/01 11:48:42;;;;;;;2.97;1.80;;;;;;;16.87;67.59;99909.25;5052508;28;43301;-86
2022/01/01 11:51:35;;;;;;;2.93;2.13;;;;;;;17.05;67.54;99905.25;5020589;28;40571;-87
2022/01/01 11:54:26;;;;;;;2.07;1.70;;;;;;;17.36;67.83;99925.28;5009403;28;38851;-86
2022/01/01 11:57:00;;;;;;;2.10;1.87;;;;;;;17.42;66.69;99919.50;5019332;28;42151;-88
2022/01/01 11:59:30;;;;;;;3.53;1.80;;;;;;;17.47;66.96;99914.63;5021343;28;43027;-86
2022/01/01 12:02:00;;;;;;;1.93;1.73;;;;;;;17.47;66.28;99906.59;5036861;28;41097;-86
2022/01/01 12:04:32;;;;;;;2.30;2.00;;;;;;;17.48;66.36;99904.78;5065662;28;39849;-90
2022/01/01 12:07:01;;;;;;;3.00;1.83;;;;;;;17.55;65.24;99919.44;5055876;28;42271;-86
2022/01/01 12:09:30;;;;;;;3.40;1.97;;;;;;;17.45;64.58;99903.16;5023957;28;42876;-89
2022/01/01 12:11:59;;;;;;;3.07;1.90;;;;;;;17.52;64.21;99916.97;5049018;28;40990;-87
2022/01/01 12:14:29;;;;;;;3.27;1.87;;;;;;;17.20;64.27;99863.97;5020550;28;40373;-86
2022/01/01 12:16:56;;;;;;;3.77;1.67;;;;;;;17.44;64.79;99897.94;5037871;28;40553;-90
2022/01/01 12:19:26;;;;;;;1.63;1.43;;;;;;;17.47;64.04;99897.69;5053155;28;42704;-86
2022/01/01 12:22:08;;;;;;;2.17;1.27;;;;;;;17.68;63.99;99914.06;5038121;28;41072;-90
2022/01/01 12:24:36;;;;;;;2.03;1.50;;;;;;;17.76;63.94;99906.28;5036597;28;38749;-89
2022/01/01 12:27:13;;;;;;;3.97;1.50;;;;;;;17.74;63.84;99908.22;5052198;28;40656;-88
2022/01/01 12:29:42;;;;;;;2.37;1.83;;;;;;;17.62;63.77;99893.88;5036221;28;41429;-89
2022/01/01 12:32:10;;;;;;;1.70;1.60;;;;;;;17.67;64.38;99897.13;5051958;28;42128;-89
2022/01/01 12:34:38;;;;;;;1.80;1.50;;;;;;;17.51;63.84;99875.94;5052527;28;39933;-91
2022/01/01 12:37:08;;;;;;;2.17;1.33;;;;;;;17.49;63.79;99896.63;5035913;28;41372;-90
2022/01/01 12:39:59;;;;;;;1.60;1.50;;;;;;;17.56;63.08;99921.97;5019814;28;41461;-87
2022/01/01 12:42:30;;;;;;;2.53;1.40;;;;;;;17.42;63.79;99892.72;5036011;28;41144;-89
2022/01/01 12:45:03;;;;;;;1.83;1.40;;;;;;;17.33;63.60;99888.00;5037678;28;38889;-86
2022/01/01 12:47:32;;;;;;;1.63;1.40;;;;;;;17.04;63.07;99850.03;5046465;28;41186;-86
2022/01/01 12:50:06;;;;;;;1.67;1.57;;;;;;;16.98;62.99;99844.25;5036202;28;41548;-86
2022/01/01 12:52:34;;;;;;;1.83;1.57;;;;;;;17.28;62.87;99890.19;5054629;28;41782;-89
2022/01/01 12:55:02;;;;;;;2.57;1.87;;;;;;;17.26;63.32;99884.09;5056047;28;39342;-87
2022/01/01 12:57:34;;;;;;;1.40;1.30;;;;;;;17.26;62.42;99883.22;5039443;28;40293;-88
2022/01/01 13:00:22;;;;;;;2.97;1.77;;;;;;;17.24;62.67;99880.66;5055664;28;41879;-89
2022/01/01 13:02:56;;;;;;;1.13;1.03;;;;;;;17.17;63.47;99872.25;5054770;28;41404;-87
2022/01/01 13:05:24;;;;;;;1.70;1.53;;;;;;;17.22;63.74;99877.25;5054661;28;39214;-86
2022/01/01 13:07:52;;;;;;;1.63;1.53;;;;;;;17.15;62.90;99881.34;5046520;28;40914;-90
2022/01/01 13:10:20;;;;;;;1.30;1.20;;;;;;;17.09;63.21;99881.78;5062525;28;42652;-85
2022/01/01 13:12:49;;;;;;;1.83;1.30;;;;;;;17.00;63.36;99853.03;5040824;28;41488;-87
2022/01/01 13:15:18;;;;;;;1.77;1.30;;;;;;;17.03;63.56;99868.88;5033008;28;38761;-86
2022/01/01 13:17:47;;;;;;;1.70;1.07;;;;;;;16.88;62.74;99849.41;5051744;28;41613;-89
2022/01/01 13:20:14;;;;;;;1.50;1.00;;;;;;;16.92;62.83;99866.13;5035126;28;43161;-88
2022/01/01 13:22:42;;;;;;;1.57;1.30;;;;;;;16.88;62.44;99860.13;5035133;28;41189;-90
2022/01/01 13:25:10;;;;;;;2.30;1.30;;;;;;;16.88;63.07;99850.28;5050920;28;39982;-86
2022/01/01 13:27:39;;;;;;;1.57;1.10;;;;;;;16.95;63.03;99849.81;5056762;28;41811;-89
2022/01/01 13:30:10;;;;;;;1.80;1.20;;;;;;;17.04;63.14;99859.88;5062786;28;41840;-89
2022/01/01 13:32:38;;;;;;;1.30;0.90;;;;;;;17.05;62.55;99862.44;5016291;28;41799;-88
2022/01/01 13:35:06;;;;;;;1.67;1.13;;;;;;;16.99;62.68;99868.22;5034740;28;39631;-86
2022/01/01 13:37:33;;;;;;;1.00;0.90;;;;;;;16.91;62.59;99853.69;5048546;28;40811;-88
2022/01/01 13:40:03;;;;;;;1.43;0.93;;;;;;;16.77;61.82;99844.84;5042813;28;42830;-89
2022/01/01 13:42:30;;;;;;;1.20;1.10;;;;;;;16.70;62.52;99840.88;5042526;28;40795;-87
2022/01/01 13:45:04;;;;;;;1.40;0.87;;;;;;;16.67;63.24;99846.47;5049698;28;38861;-85
2022/01/01 13:47:33;;;;;;;2.10;1.27;;;;;;;16.59;62.29;99850.63;5023418;28;41888;-88
2022/01/01 13:50:12;;;;;;;0.80;0.73;;;;;;;16.56;61.55;99869.59;5043301;28;42078;-87
2022/01/01 13:52:41;;;;;;;1.47;0.70;;;;;;;16.48;61.53;99878.13;5058309;28;43182;-85
2022/01/01 13:55:10;;;;;;;2.47;1.00;;;;;;;16.39;62.14;99873.44;5060525;28;39850;-86
2022/01/01 13:57:40;;;;;;;2.00;1.60;;;;;;;16.22;62.10;99861.22;5043493;28;40574;-88
2022/01/01 14:00:08;;;;;;;1.40;1.07;;;;;;;16.26;62.83;99869.91;5045652;28;42706;-87
2022/01/01 14:02:45;;;;;;;1.00;0.93;;;;;;;16.16;63.04;99870.56;5055966;28;41208;-89
2022/01/01 14:05:16;;;;;;;1.00;1.00;;;;;;;16.07;63.23;99863.16;5050488;28;38701;-88
2022/01/01 14:07:44;;;;;;;1.57;1.30;;;;;;;15.94;63.74;99856.97;5057619;28;41454;-88
2022/01/01 14:10:14;;;;;;;1.47;1.37;;;;;;;15.69;64.24;99819.53;5039750;28;42140;-89
2022/01/01 14:12:44;;;;;;;2.07;1.20;;;;;;;15.94;64.67;99862.31;5041545;28;41354;-87
2022/01/01 14:15:14;;;;;;;1.30;1.20;;;;;;;15.87;64.66;99844.13;5049004;28;38775;-89
2022/01/01 14:17:57;;;;;;;1.33;1.10;;;;;;;15.77;64.45;99839.41;5035987;28;41751;-87
2022/01/01 14:20:26;;;;;;;0.97;0.90;;;;;;;15.80;64.71;99865.91;5035824;28;41998;-86
2022/01/01 14:22:54;;;;;;;1.43;1.00;;;;;;;15.75;64.74;99860.03;5048477;28;41409;-87
2022/01/01 14:25:23;;;;;;;1.20;1.07;;;;;;;15.74;65.38;99865.47;5053169;28;39622;-85
2022/01/01 14:27:52;;;;;;;1.33;1.13;;;;;;;15.69;65.53;99857.78;5075435;28;41639;-86
2022/01/01 14:30:19;;;;;;;1.63;1.43;;;;;;;15.53;65.71;99840.19;5068674;28;41863;-86
2022/01/01 14:32:47;;;;;;;2.40;1.47;;;;;;;15.50;66.03;99846.56;5059683;28;42233;-87
2022/01/01 14:35:16;;;;;;;1.67;1.57;;;;;;;15.55;66.37;99860.50;5083019;28;41074;-88
2022/01/01 14:37:46;;;;;;;1.20;1.10;;;;;;;15.47;66.18;99846.78;5065490;28;42237;-87
2022/01/01 14:40:14;;;;;;;1.63;1.23;;;;;;;15.46;66.76;99845.06;5080110;28;43879;-87
2022/01/01 14:42:41;;;;;;;2.47;1.10;;;;;;;15.40;66.60;99843.66;5055746;28;41966;-89
2022/01/01 14:45:10;;;;;;;1.63;1.47;;;;;;;15.39;66.38;99844.63;5070383;28;41532;-86
2022/01/01 14:47:43;;;;;;;1.97;1.33;;;;;;;15.33;66.77;99822.84;5074974;28;40771;-86
2022/01/01 14:50:14;;;;;;;1.37;1.23;;;;;;;15.23;66.90;99821.72;5049255;28;41941;-87
2022/01/01 14:52:51;;;;;;;1.40;1.30;;;;;;;15.34;67.35;99845.88;5056865;28;40902;-86
2022/01/01 14:55:25;;;;;;;1.27;1.17;;;;;;;15.20;67.36;99832.63;5058318;28;38659;-87
2022/01/01 14:57:56;;;;;;;1.80;1.43;;;;;;;15.22;68.08;99839.53;5041067;28;41892;-86
2022/01/01 15:00:25;;;;;;;1.80;1.70;;;;;;;15.12;68.53;99837.56;5041127;28;41825;-86
2022/01/01 15:02:54;;;;;;;2.23;1.90;;;;;;;15.05;68.79;99829.13;5036696;28;43436;-88
2022/01/01 15:05:23;;;;;;;2.10;1.80;;;;;;;15.01;69.13;99830.28;5058112;28;38804;-87
2022/01/01 15:07:55;;;;;;;2.90;1.97;;;;;;;14.98;69.80;99822.47;5045018;28;40848;-87
2022/01/01 15:10:23;;;;;;;2.00;1.60;;;;;;;14.99;69.71;99829.50;5043430;28;41817;-87
2022/01/01 15:12:51;;;;;;;2.37;2.13;;;;;;;14.87;70.11;99817.84;5059918;28;42573;-87
2022/01/01 15:15:19;;;;;;;3.10;1.83;;;;;;;14.85;70.43;99816.22;5043288;28;38829;-88
2022/01/01 15:17:46;;;;;;;2.37;1.70;;;;;;;14.79;70.96;99805.97;5044778;28;42125;-87
2022/01/01 15:20:14;;;;;;;2.57;2.03;;;;;;;14.81;71.01;99817.38;5059293;28;41783;-87
2022/01/01 15:23:02;;;;;;;3.00;2.20;;;;;;;14.67;71.46;99813.78;5058732;28;42202;-87
2022/01/01 15:25:31;;;;;;;3.07;2.17;;;;;;;14.51;72.04;99801.53;5043551;28;38858;-88
2022/01/01 15:28:00;;;;;;;2.47;2.00;;;;;;;14.54;72.37;99809.34;5029648;28;40851;-85
2022/01/01 15:30:36;;;;;;;2.37;1.87;;;;;;;14.55;72.46;99813.72;5047673;28;42262;-89
2022/01/01 15:33:17;;;;;;;3.93;2.17;;;;;;;14.42;72.52;99805.66;5061082;28;42097;-87
2022/01/01 15:35:54;;;;;;;3.03;2.77;;;;;;;14.38;73.02;99809.41;5059606;28;39895;-88
2022/01/01 15:38:27;;;;;;;3.20;2.07;;;;;;;14.24;73.40;99815.59;5045614;28;40648;-87
2022/01/01 15:41:05;;;;;;;3.57;2.37;;;;;;;13.97;73.67;99794.19;5044452;28;42024;-86
2022/01/01 15:43:34;;;;;;;3.67;2.63;;;;;;;13.93;74.36;99813.13;5046601;28;42608;-86
2022/01/01 15:46:03;;;;;;;5.60;2.20;;;;;;;13.74;74.34;99801.88;5062289;28;40188;-86
2022/01/01 15:48:31;;;;;;;4.13;2.43;;;;;;;13.75;74.80;99817.75;5045090;28;40600;-88
2022/01/01 15:51:00;;;;;;;3.57;2.27;;;;;;;13.56;74.92;99803.84;5040494;28;43332;-88
2022/01/01 15:53:30;;;;;;;4.03;3.10;;;;;;;13.50;74.75;99806.84;5044266;28;41626;-87
2022/01/01 15:56:02;;;;;;;4.20;3.20;;;;;;;13.51;75.29;99820.06;5060340;28;40677;-88
2022/01/01 15:58:36;;;;;;;4.30;2.87;;;;;;;13.45;75.15;99831.09;5045765;28;42025;-87
2022/01/01 16:01:12;;;;;;;3.53;2.27;;;;;;;13.38;75.29;99815.56;5020507;28;41644;-86
2022/01/01 16:03:45;;;;;;;3.90;2.37;;;;;;;13.36;74.95;99820.09;5050906;28;41088;-86
2022/01/01 16:06:16;;;;;;;3.67;2.53;;;;;;;13.28;74.93;99807.25;5056761;28;39019;-87
2022/01/01 16:08:54;;;;;;;1.83;1.73;;;;;;;13.15;75.46;99795.63;5050881;28;40675;-90
2022/01/01 16:11:24;;;;;;;3.07;2.37;;;;;;;13.03;75.77;99797.16;5052572;28;41286;-87
2022/01/01 16:14:01;;;;;;;3.57;2.37;;;;;;;12.97;75.73;99794.00;5045148;28;41293;-90
2022/01/01 16:16:33;;;;;;;3.00;2.73;;;;;;;12.79;75.93;99787.91;5044787;28;38908;-88
2022/01/01 16:19:07;;;;;;;3.60;2.23;;;;;;;12.75;76.55;99799.66;5055653;28;41041;-89
2022/01/01 16:21:37;;;;;;;3.10;2.43;;;;;;;12.57;77.06;99789.13;5022003;28;42276;-90
2022/01/01 16:24:08;;;;;;;3.60;2.60;;;;;;;12.61;76.96;99810.22;5045750;28;42494;-89
2022/01/01 16:26:36;;;;;;;3.37;1.97;;;;;;;12.42;77.09;99792.63;5046122;28;38700;-88
2022/01/01 16:29:04;;;;;;;3.37;2.37;;;;;;;12.13;77.18;99762.34;5055274;28;40698;-88
2022/01/01 16:31:40;;;;;;;3.80;2.10;;;;;;;12.33;77.46;99797.59;5054229;28;42555;-84
2022/01/01 16:34:08;;;;;;;2.17;1.97;;;;;;;12.16;77.76;99779.91;5045864;28;41656;-85
2022/01/01 16:36:36;;;;;;;2.97;2.40;;;;;;;12.20;77.86;99794.75;5050607;28;39442;-86
2022/01/01 16:39:06;;;;;;;3.00;1.90;;;;;;;11.90;78.19;99748.59;5047252;28;40674;-86
2022/01/01 16:41:53;;;;;;;3.13;2.23;;;;;;;11.95;78.28;99768.66;5058324;28;42670;-87
2022/01/01 16:44:26;;;;;;;3.03;2.63;;;;;;;11.76;78.32;99739.56;5043271;28;41698;-88
2022/01/01 16:47:04;;;;;;;4.73;3.17;;;;;;;11.87;78.47;99758.44;5042306;28;38898;-86
2022/01/01 16:49:38;;;;;;;2.67;2.10;;;;;;;11.40;78.16;99693.72;5040040;28;40622;-87
2022/01/01 16:52:13;;;;;;;3.70;2.90;;;;;;;11.40;78.18;99705.22;5036546;28;41946;-88
2022/01/01 16:54:46;;;;;;;2.30;2.03;;;;;;;11.79;78.17;99773.06;5038730;28;41178;-86
2022/01/01 16:57:20;;;;;;;2.87;2.40;;;;;;;11.32;78.36;99710.06;5043456;28;38833;-86
2022/01/01 16:59:59;;;;;;;4.53;2.33;;;;;;;11.23;78.77;99699.09;5043843;28;40644;-87
2022/01/01 17:02:32;;;;;;;2.33;1.80;;;;;;;11.18;78.47;99703.75;5041533;28;41897;-88
2022/01/01 17:05:05;;;;;;;2.67;1.97;;;;;;;11.01;78.58;99694.84;5044230;28;41461;-88
2022/01/01 17:07:36;;;;;;;2.50;2.30;;;;;;;11.28;78.61;99750.06;5043278;28;40065;-85
2022/01/01 17:10:08;;;;;;;2.90;2.17;;;;;;;10.92;78.72;99710.38;5042014;28;42375;-85
2022/01/01 17:12:37;;;;;;;3.53;2.50;;;;;;;11.10;78.67;99752.72;5039972;28;41722;-87
